createdAt,value
2022-09-15T00:00:00.000Z,287.96
2022-09-15T00:01:26.000Z,287.9
2022-09-15T00:03:32.000Z,287.77
2022-09-15T00:04:59.000Z,287.77
2022-09-15T00:07:05.000Z,287.84
2022-09-15T00:08:32.000Z,287.77
2022-09-15T00:10:38.000Z,287.77
2022-09-15T00:12:04.000Z,287.77
2022-09-15T00:14:10.000Z,287.77
2022-09-15T00:15:37.000Z,287.71
2022-09-15T00:17:43.000Z,287.71
2022-09-15T00:19:09.000Z,287.77
2022-09-15T00:21:15.000Z,287.71
2022-09-15T00:22:42.000Z,287.71
2022-09-15T00:24:48.000Z,287.71
2022-09-15T00:26:15.000Z,287.71
2022-09-15T00:28:21.000Z,287.71
2022-09-15T00:29:47.000Z,287.59
2022-09-15T00:31:53.000Z,287.59
2022-09-15T00:33:20.000Z,287.65
2022-09-15T00:35:26.000Z,287.59
2022-09-15T00:38:17.000Z,287.52
2022-09-15T00:39:44.000Z,287.52
2022-09-15T00:41:50.000Z,287.46
2022-09-15T00:43:16.000Z,287.46
2022-09-15T00:45:22.000Z,287.52
2022-09-15T00:46:49.000Z,287.52
2022-09-15T00:49:19.000Z,287.46
2022-09-15T00:50:45.000Z,287.52
2022-09-15T00:52:52.000Z,287.46
2022-09-15T00:54:18.000Z,287.46
2022-09-15T00:56:24.000Z,287.46
2022-09-15T00:57:51.000Z,287.4
2022-09-15T00:59:57.000Z,287.46
2022-09-15T01:01:23.000Z,287.52
2022-09-15T01:03:29.000Z,287.46
2022-09-15T01:04:56.000Z,287.52
2022-09-15T01:07:03.000Z,287.46
2022-09-15T01:08:29.000Z,287.46
2022-09-15T01:10:35.000Z,287.34
2022-09-15T01:12:02.000Z,287.4
2022-09-15T01:14:08.000Z,287.46
2022-09-15T01:16:59.000Z,287.46
2022-09-15T01:18:25.000Z,287.46
2022-09-15T01:20:32.000Z,287.52
2022-09-15T01:21:58.000Z,287.52
2022-09-15T01:24:04.000Z,287.46
2022-09-15T01:25:31.000Z,287.4
2022-09-15T01:27:37.000Z,287.4
2022-09-15T01:29:07.000Z,287.4
2022-09-15T01:31:13.000Z,287.4
2022-09-15T01:32:40.000Z,287.27
2022-09-15T01:34:46.000Z,287.27
2022-09-15T01:36:12.000Z,287.34
2022-09-15T01:38:18.000Z,287.27
2022-09-15T01:39:45.000Z,287.27
2022-09-15T01:41:51.000Z,287.27
2022-09-15T01:43:18.000Z,287.34
2022-09-15T01:45:24.000Z,287.27
2022-09-15T01:46:50.000Z,287.27
2022-09-15T01:48:57.000Z,287.27
2022-09-15T01:50:23.000Z,287.15
2022-09-15T01:52:29.000Z,287.15
2022-09-15T01:55:21.000Z,287.09
2022-09-15T01:56:47.000Z,287.15
2022-09-15T01:58:53.000Z,287.09
2022-09-15T02:00:20.000Z,287.09
2022-09-15T02:02:26.000Z,287.09
2022-09-15T02:03:52.000Z,287.02
2022-09-15T02:05:58.000Z,287.02
2022-09-15T02:07:25.000Z,287.02
2022-09-15T02:09:31.000Z,286.96
2022-09-15T02:10:57.000Z,286.96
2022-09-15T02:13:04.000Z,286.9
2022-09-15T02:14:30.000Z,286.96
2022-09-15T02:16:36.000Z,286.9
2022-09-15T02:18:03.000Z,286.96
2022-09-15T02:20:09.000Z,286.9
2022-09-15T02:21:35.000Z,286.9
2022-09-15T02:23:42.000Z,286.84
2022-09-15T02:25:08.000Z,286.84
2022-09-15T02:27:14.000Z,286.9
2022-09-15T02:28:41.000Z,286.9
2022-09-15T02:30:47.000Z,286.84
2022-09-15T02:33:38.000Z,286.9
2022-09-15T02:35:05.000Z,286.9
2022-09-15T02:37:11.000Z,286.84
2022-09-15T02:38:37.000Z,286.9
2022-09-15T02:40:44.000Z,286.84
2022-09-15T02:42:10.000Z,286.84
2022-09-15T02:44:16.000Z,286.84
2022-09-15T02:45:43.000Z,286.84
2022-09-15T02:47:49.000Z,286.77
2022-09-15T02:49:15.000Z,286.77
2022-09-15T02:51:21.000Z,286.77
2022-09-15T02:52:48.000Z,286.84
2022-09-15T02:54:54.000Z,286.84
2022-09-15T02:56:21.000Z,286.84
2022-09-15T02:58:27.000Z,286.77
2022-09-15T02:59:53.000Z,286.77
2022-09-15T03:01:59.000Z,286.77
2022-09-15T03:03:26.000Z,286.84
2022-09-15T03:05:32.000Z,286.71
2022-09-15T03:06:58.000Z,286.65
2022-09-15T03:09:04.000Z,286.65
2022-09-15T03:11:56.000Z,286.71
2022-09-15T03:13:22.000Z,286.65
2022-09-15T03:15:28.000Z,286.71
2022-09-15T03:16:55.000Z,286.71
2022-09-15T03:19:01.000Z,286.71
2022-09-15T03:20:27.000Z,286.77
2022-09-15T03:22:33.000Z,286.71
2022-09-15T03:24:00.000Z,286.71
2022-09-15T03:26:06.000Z,286.65
2022-09-15T03:27:33.000Z,286.71
2022-09-15T03:29:39.000Z,286.65
2022-09-15T03:31:05.000Z,286.65
2022-09-15T03:33:11.000Z,286.71
2022-09-15T03:34:38.000Z,286.71
2022-09-15T03:36:44.000Z,286.77
2022-09-15T03:38:10.000Z,286.71
2022-09-15T03:40:17.000Z,286.65
2022-09-15T03:41:43.000Z,286.65
2022-09-15T03:43:49.000Z,286.65
2022-09-15T03:45:16.000Z,286.65
2022-09-15T03:47:22.000Z,286.65
2022-09-15T03:50:13.000Z,286.65
2022-09-15T03:51:40.000Z,286.65
2022-09-15T03:53:46.000Z,286.59
2022-09-15T03:55:12.000Z,286.52
2022-09-15T03:57:18.000Z,286.52
2022-09-15T03:58:45.000Z,286.52
2022-09-15T04:00:51.000Z,286.52
2022-09-15T04:02:18.000Z,286.52
2022-09-15T04:04:24.000Z,286.59
2022-09-15T04:05:50.000Z,286.65
2022-09-15T04:07:56.000Z,286.59
2022-09-15T04:09:23.000Z,286.65
2022-09-15T04:11:29.000Z,286.59
2022-09-15T04:12:55.000Z,286.59
2022-09-15T04:15:02.000Z,286.59
2022-09-15T04:16:28.000Z,286.59
2022-09-15T04:18:34.000Z,286.59
2022-09-15T04:20:01.000Z,286.59
2022-09-15T04:22:07.000Z,286.59
2022-09-15T04:23:33.000Z,286.65
2022-09-15T04:25:40.000Z,286.59
2022-09-15T04:28:31.000Z,286.59
2022-09-15T04:29:57.000Z,286.52
2022-09-15T04:32:03.000Z,286.52
2022-09-15T04:33:30.000Z,286.52
2022-09-15T04:35:36.000Z,286.52
2022-09-15T04:37:02.000Z,286.46
2022-09-15T04:39:09.000Z,286.46
2022-09-15T04:40:35.000Z,286.46
2022-09-15T04:42:41.000Z,286.46
2022-09-15T04:44:08.000Z,286.4
2022-09-15T04:46:14.000Z,286.4
2022-09-15T04:47:40.000Z,286.4
2022-09-15T04:49:46.000Z,286.4
2022-09-15T04:51:13.000Z,286.4
2022-09-15T04:53:19.000Z,286.4
2022-09-15T04:54:45.000Z,286.4
2022-09-15T04:56:52.000Z,286.34
2022-09-15T04:58:18.000Z,286.4
2022-09-15T05:00:24.000Z,286.34
2022-09-15T05:01:51.000Z,286.34
2022-09-15T05:03:57.000Z,286.4
2022-09-15T05:06:48.000Z,286.4
2022-09-15T05:08:15.000Z,286.4
2022-09-15T05:10:21.000Z,286.34
2022-09-15T05:11:48.000Z,286.34
2022-09-15T05:13:54.000Z,286.27
2022-09-15T05:15:20.000Z,286.34
2022-09-15T05:17:26.000Z,286.34
2022-09-15T05:18:53.000Z,286.27
2022-09-15T05:20:59.000Z,286.34
2022-09-15T05:22:25.000Z,286.34
2022-09-15T05:24:31.000Z,286.27
2022-09-15T05:25:58.000Z,286.34
2022-09-15T05:28:04.000Z,286.34
2022-09-15T05:29:31.000Z,286.34
2022-09-15T05:31:37.000Z,286.34
2022-09-15T05:33:04.000Z,286.34
2022-09-15T05:35:10.000Z,286.27
2022-09-15T05:36:36.000Z,286.27
2022-09-15T05:38:42.000Z,286.27
2022-09-15T05:40:09.000Z,286.15
2022-09-15T05:42:15.000Z,286.15
2022-09-15T05:45:07.000Z,286.15
2022-09-15T05:46:33.000Z,286.15
2022-09-15T05:48:39.000Z,286.09
2022-09-15T05:50:06.000Z,286.09
2022-09-15T05:52:12.000Z,286.09
2022-09-15T05:53:38.000Z,286.02
2022-09-15T05:55:45.000Z,286.09
2022-09-15T05:57:11.000Z,286.09
2022-09-15T05:59:17.000Z,286.02
2022-09-15T06:00:44.000Z,286.02
2022-09-15T06:02:50.000Z,286.02
2022-09-15T06:04:16.000Z,286.02
2022-09-15T06:06:22.000Z,285.96
2022-09-15T06:07:49.000Z,285.96
2022-09-15T06:09:55.000Z,285.9
2022-09-15T06:11:21.000Z,285.9
2022-09-15T06:13:28.000Z,285.96
2022-09-15T06:14:54.000Z,286.02
2022-09-15T06:17:00.000Z,285.96
2022-09-15T06:18:27.000Z,286.02
2022-09-15T06:20:33.000Z,286.02
2022-09-15T06:23:24.000Z,285.96
2022-09-15T06:24:50.000Z,286.02
2022-09-15T06:26:57.000Z,286.02
2022-09-15T06:28:23.000Z,285.96
2022-09-15T06:30:29.000Z,285.96
2022-09-15T06:31:56.000Z,286.02
2022-09-15T06:34:02.000Z,286.09
2022-09-15T06:35:29.000Z,286.09
2022-09-15T06:37:35.000Z,286.09
2022-09-15T06:39:01.000Z,286.15
2022-09-15T06:41:07.000Z,286.21
2022-09-15T06:42:34.000Z,286.21
2022-09-15T06:44:40.000Z,286.21
2022-09-15T06:46:06.000Z,286.21
2022-09-15T06:48:13.000Z,286.27
2022-09-15T06:49:49.000Z,286.27
2022-09-15T06:51:55.000Z,286.34
2022-09-15T06:53:22.000Z,286.4
2022-09-15T06:55:28.000Z,286.46
2022-09-15T06:56:54.000Z,286.59
2022-09-15T06:59:00.000Z,286.59
2022-09-15T07:01:52.000Z,286.65
2022-09-15T07:03:18.000Z,286.77
2022-09-15T07:05:25.000Z,286.77
2022-09-15T07:06:51.000Z,286.84
2022-09-15T07:08:57.000Z,286.9
2022-09-15T07:10:24.000Z,286.96
2022-09-15T07:12:30.000Z,286.9
2022-09-15T07:13:57.000Z,286.84
2022-09-15T07:16:03.000Z,286.84
2022-09-15T07:17:29.000Z,286.84
2022-09-15T07:19:36.000Z,286.9
2022-09-15T07:21:02.000Z,286.96
2022-09-15T07:23:08.000Z,287.02
2022-09-15T07:24:35.000Z,287.02
2022-09-15T07:26:41.000Z,287.02
2022-09-15T07:28:07.000Z,286.96
2022-09-15T07:30:13.000Z,287.09
2022-09-15T07:31:40.000Z,287.15
2022-09-15T07:33:46.000Z,287.15
2022-09-15T07:35:13.000Z,287.15
2022-09-15T07:37:19.000Z,287.15
2022-09-15T07:40:10.000Z,287.21
2022-09-15T07:41:37.000Z,287.21
2022-09-15T07:43:43.000Z,287.21
2022-09-15T07:45:09.000Z,287.27
2022-09-15T07:47:16.000Z,287.27
2022-09-15T07:48:42.000Z,287.34
2022-09-15T07:50:48.000Z,287.34
2022-09-15T07:52:15.000Z,287.34
2022-09-15T07:54:21.000Z,287.34
2022-09-15T07:55:47.000Z,287.34
2022-09-15T07:57:54.000Z,287.4
2022-09-15T07:59:20.000Z,287.46
2022-09-15T08:01:26.000Z,287.34
2022-09-15T08:02:53.000Z,287.4
2022-09-15T08:04:59.000Z,287.4
2022-09-15T08:06:26.000Z,287.4
2022-09-15T08:08:32.000Z,287.4
2022-09-15T08:09:58.000Z,287.46
2022-09-15T08:12:04.000Z,287.52
2022-09-15T08:13:31.000Z,287.46
2022-09-15T08:15:37.000Z,287.52
2022-09-15T08:18:28.000Z,287.59
2022-09-15T08:19:55.000Z,287.59
2022-09-15T08:22:01.000Z,287.52
2022-09-15T08:23:27.000Z,287.59
2022-09-15T08:25:33.000Z,287.52
2022-09-15T08:27:00.000Z,287.52
2022-09-15T08:29:06.000Z,287.59
2022-09-15T08:30:33.000Z,287.52
2022-09-15T08:32:39.000Z,287.59
2022-09-15T08:34:05.000Z,287.52
2022-09-15T08:36:11.000Z,287.59
2022-09-15T08:37:38.000Z,287.65
2022-09-15T08:39:44.000Z,287.71
2022-09-15T08:41:10.000Z,287.77
2022-09-15T08:43:16.000Z,287.9
2022-09-15T08:44:43.000Z,287.96
2022-09-15T08:46:49.000Z,288.02
2022-09-15T08:48:16.000Z,287.96
2022-09-15T08:50:22.000Z,287.96
2022-09-15T08:51:48.000Z,287.96
2022-09-15T08:53:54.000Z,288.02
2022-09-15T08:56:46.000Z,288.09
2022-09-15T08:58:12.000Z,288.15
2022-09-15T09:00:19.000Z,288.21
2022-09-15T09:01:45.000Z,288.34
2022-09-15T09:03:51.000Z,288.34
2022-09-15T09:05:18.000Z,288.4
2022-09-15T09:07:24.000Z,288.34
2022-09-15T09:08:50.000Z,288.4
2022-09-15T09:10:57.000Z,288.46
2022-09-15T09:12:23.000Z,288.52
2022-09-15T09:14:29.000Z,288.46
2022-09-15T09:15:56.000Z,288.52
2022-09-15T09:18:02.000Z,288.59
2022-09-15T09:19:28.000Z,288.52
2022-09-15T09:21:36.000Z,288.46
2022-09-15T09:23:03.000Z,288.46
2022-09-15T09:25:09.000Z,288.46
2022-09-15T09:26:51.000Z,288.46
2022-09-15T09:28:57.000Z,288.52
2022-09-15T09:30:24.000Z,288.59
2022-09-15T09:32:30.000Z,288.59
2022-09-15T09:35:21.000Z,288.9
2022-09-15T09:36:48.000Z,288.9
2022-09-15T09:38:54.000Z,288.9
2022-09-15T09:40:20.000Z,288.9
2022-09-15T09:42:27.000Z,288.77
2022-09-15T09:43:53.000Z,288.77
2022-09-15T09:45:59.000Z,288.77
2022-09-15T09:47:26.000Z,288.77
2022-09-15T09:49:32.000Z,288.77
2022-09-15T09:50:58.000Z,288.77
2022-09-15T09:53:04.000Z,288.9
2022-09-15T09:54:31.000Z,288.9
2022-09-15T09:56:37.000Z,288.9
2022-09-15T09:58:04.000Z,288.96
2022-09-15T10:00:10.000Z,288.96
2022-09-15T10:01:36.000Z,288.9
2022-09-15T10:03:43.000Z,288.9
2022-09-15T10:05:09.000Z,288.96
2022-09-15T10:07:15.000Z,289.02
2022-09-15T10:08:42.000Z,288.96
2022-09-15T10:10:48.000Z,289.02
2022-09-15T10:13:39.000Z,289.09
2022-09-15T10:15:06.000Z,289.15
2022-09-15T10:17:12.000Z,289.27
2022-09-15T10:18:38.000Z,289.21
2022-09-15T10:20:44.000Z,289.27
2022-09-15T10:22:11.000Z,289.4
2022-09-15T10:24:17.000Z,289.46
2022-09-15T10:25:44.000Z,289.52
2022-09-15T10:28:04.000Z,289.52
2022-09-15T10:29:30.000Z,289.46
2022-09-15T10:31:36.000Z,289.59
2022-09-15T10:33:03.000Z,289.52
2022-09-15T10:35:09.000Z,289.52
2022-09-15T10:36:35.000Z,289.59
2022-09-15T10:38:41.000Z,289.65
2022-09-15T10:40:08.000Z,289.77
2022-09-15T10:42:15.000Z,289.59
2022-09-15T10:43:41.000Z,289.52
2022-09-15T10:45:47.000Z,289.52
2022-09-15T10:47:14.000Z,289.4
2022-09-15T10:49:20.000Z,289.34
2022-09-15T10:52:11.000Z,289.27
2022-09-15T10:53:38.000Z,289.21
2022-09-15T10:55:44.000Z,289.21
2022-09-15T10:57:17.000Z,289.21
2022-09-15T10:59:24.000Z,289.15
2022-09-15T11:00:50.000Z,289.21
2022-09-15T11:02:56.000Z,289.34
2022-09-15T11:04:23.000Z,289.34
2022-09-15T11:06:29.000Z,289.46
2022-09-15T11:07:55.000Z,289.59
2022-09-15T11:10:01.000Z,289.65
2022-09-15T11:11:28.000Z,289.65
2022-09-15T11:13:34.000Z,289.59
2022-09-15T11:15:01.000Z,289.59
2022-09-15T11:17:07.000Z,289.59
2022-09-15T11:18:33.000Z,289.65
2022-09-15T11:20:39.000Z,289.59
2022-09-15T11:22:06.000Z,289.52
2022-09-15T11:24:12.000Z,289.46
2022-09-15T11:25:38.000Z,289.34
2022-09-15T11:27:45.000Z,289.34
2022-09-15T11:30:36.000Z,289.27
2022-09-15T11:32:02.000Z,289.21
2022-09-15T11:34:08.000Z,289.09
2022-09-15T11:35:35.000Z,289.02
2022-09-15T11:37:41.000Z,289.02
2022-09-15T11:39:07.000Z,289.02
2022-09-15T11:41:13.000Z,289.02
2022-09-15T11:42:40.000Z,288.96
2022-09-15T11:44:46.000Z,289.02
2022-09-15T11:46:13.000Z,289.02
2022-09-15T11:48:19.000Z,289.09
2022-09-15T11:49:45.000Z,289.15
2022-09-15T11:51:51.000Z,289.21
2022-09-15T11:53:18.000Z,289.21
2022-09-15T11:55:24.000Z,289.4
2022-09-15T11:56:51.000Z,289.4
2022-09-15T11:58:57.000Z,289.4
2022-09-15T12:00:23.000Z,289.4
2022-09-15T12:02:29.000Z,289.34
2022-09-15T12:03:56.000Z,289.27
2022-09-15T12:06:02.000Z,289.27
2022-09-15T12:08:53.000Z,289.21
2022-09-15T12:10:20.000Z,289.21
2022-09-15T12:12:26.000Z,289.09
2022-09-15T12:13:55.000Z,289.02
2022-09-15T12:16:01.000Z,288.96
2022-09-15T12:17:28.000Z,289.02
2022-09-15T12:19:34.000Z,289.02
2022-09-15T12:21:01.000Z,289.02
2022-09-15T12:23:07.000Z,289.02
2022-09-15T12:24:33.000Z,289.02
2022-09-15T12:26:40.000Z,288.96
2022-09-15T12:28:06.000Z,288.9
2022-09-15T12:30:12.000Z,288.9
2022-09-15T12:31:39.000Z,288.84
2022-09-15T12:33:45.000Z,288.84
2022-09-15T12:35:12.000Z,288.71
2022-09-15T12:37:18.000Z,288.65
2022-09-15T12:38:44.000Z,288.71
2022-09-15T12:40:50.000Z,288.71
2022-09-15T12:42:17.000Z,288.65
2022-09-15T12:44:23.000Z,288.65
2022-09-15T12:47:14.000Z,288.65
2022-09-15T12:48:41.000Z,288.71
2022-09-15T12:50:51.000Z,288.71
2022-09-15T12:52:18.000Z,288.84
2022-09-15T12:54:24.000Z,288.84
2022-09-15T12:55:50.000Z,288.96
2022-09-15T12:57:56.000Z,289.02
2022-09-15T12:59:23.000Z,289.09
2022-09-15T13:01:29.000Z,289.09
2022-09-15T13:02:56.000Z,289.21
2022-09-15T13:05:02.000Z,289.34
2022-09-15T13:06:28.000Z,289.46
2022-09-15T13:08:34.000Z,289.52
2022-09-15T13:10:01.000Z,289.71
2022-09-15T13:12:07.000Z,290.02
2022-09-15T13:13:34.000Z,290.15
2022-09-15T13:15:40.000Z,290.27
2022-09-15T13:17:06.000Z,290.09
2022-09-15T13:19:12.000Z,289.84
2022-09-15T13:20:39.000Z,289.84
2022-09-15T13:22:45.000Z,289.77
2022-09-15T13:25:36.000Z,289.77
2022-09-15T13:27:03.000Z,289.77
2022-09-15T13:29:09.000Z,289.84
2022-09-15T13:30:36.000Z,289.77
2022-09-15T13:32:42.000Z,289.77
2022-09-15T13:38:41.000Z,289.71
2022-09-15T13:40:47.000Z,289.71
2022-09-15T13:42:13.000Z,289.77
2022-09-15T13:44:20.000Z,289.77
2022-09-15T13:45:46.000Z,289.77
2022-09-15T13:47:52.000Z,289.71
2022-09-15T13:49:19.000Z,289.77
2022-09-15T13:51:25.000Z,289.77
2022-09-15T13:52:52.000Z,289.9
2022-09-15T13:54:58.000Z,289.96
2022-09-15T13:56:24.000Z,290.15
2022-09-15T13:58:31.000Z,290.15
2022-09-15T14:00:27.000Z,290.21
2022-09-15T14:02:33.000Z,290.09
2022-09-15T14:05:25.000Z,290.15
2022-09-15T14:06:51.000Z,290.27
2022-09-15T14:09:04.000Z,290.27
2022-09-15T14:10:30.000Z,290.21
2022-09-15T14:12:36.000Z,290.15
2022-09-15T14:14:03.000Z,290.09
2022-09-15T14:16:09.000Z,289.96
2022-09-15T14:17:37.000Z,289.96
2022-09-15T14:19:43.000Z,290.21
2022-09-15T14:21:09.000Z,290.27
2022-09-15T14:23:15.000Z,290.21
2022-09-15T14:24:42.000Z,290.21
2022-09-15T14:26:48.000Z,290.02
2022-09-15T14:28:15.000Z,290.02
2022-09-15T14:30:21.000Z,289.96
2022-09-15T14:31:47.000Z,289.9
2022-09-15T14:33:53.000Z,289.77
2022-09-15T14:35:20.000Z,289.77
2022-09-15T14:37:26.000Z,289.71
2022-09-15T14:38:53.000Z,289.71
2022-09-15T14:40:59.000Z,289.59
2022-09-15T14:43:50.000Z,289.52
2022-09-15T14:47:53.000Z,289.4
2022-09-15T14:49:19.000Z,289.34
2022-09-15T14:51:26.000Z,289.34
2022-09-15T14:52:52.000Z,289.27
2022-09-15T14:54:58.000Z,289.21
2022-09-15T14:56:25.000Z,289.15
2022-09-15T14:58:31.000Z,289.09
2022-09-15T14:59:57.000Z,289.15
2022-09-15T15:02:03.000Z,289.09
2022-09-15T15:03:30.000Z,289.09
2022-09-15T15:05:36.000Z,289.02
2022-09-15T15:07:02.000Z,289.02
2022-09-15T15:09:09.000Z,289.02
2022-09-15T15:10:35.000Z,289.02
2022-09-15T15:12:41.000Z,289.09
2022-09-15T15:14:08.000Z,289.15
2022-09-15T15:16:14.000Z,289.09
2022-09-15T15:17:41.000Z,289.09
2022-09-15T15:19:47.000Z,289.09
2022-09-15T15:22:38.000Z,289.09
2022-09-15T15:24:05.000Z,289.15
2022-09-15T15:26:11.000Z,289.15
2022-09-15T15:27:37.000Z,289.09
2022-09-15T15:29:43.000Z,289.09
2022-09-15T15:31:10.000Z,289.02
2022-09-15T15:33:16.000Z,288.96
2022-09-15T15:34:44.000Z,289.02
2022-09-15T15:36:50.000Z,288.96
2022-09-15T15:38:16.000Z,288.9
2022-09-15T15:40:22.000Z,288.84
2022-09-15T15:41:49.000Z,288.84
2022-09-15T15:43:55.000Z,288.71
2022-09-15T15:45:22.000Z,288.77
2022-09-15T15:47:28.000Z,288.77
2022-09-15T15:48:54.000Z,288.77
2022-09-15T15:51:00.000Z,288.71
2022-09-15T15:52:27.000Z,288.71
2022-09-15T15:54:33.000Z,288.65
2022-09-15T15:56:00.000Z,288.65
2022-09-15T15:58:06.000Z,288.65
2022-09-15T16:00:57.000Z,288.65
2022-09-15T16:02:23.000Z,288.59
2022-09-15T16:04:30.000Z,288.59
2022-09-15T16:05:56.000Z,288.59
2022-09-15T16:08:02.000Z,288.59
2022-09-15T16:09:29.000Z,288.52
2022-09-15T16:11:35.000Z,288.46
2022-09-15T16:13:01.000Z,288.46
2022-09-15T16:15:08.000Z,288.4
2022-09-15T16:16:34.000Z,288.4
2022-09-15T16:18:40.000Z,288.4
2022-09-15T16:20:07.000Z,288.4
2022-09-15T16:22:13.000Z,288.34
2022-09-15T16:23:39.000Z,288.4
2022-09-15T16:25:45.000Z,288.34
2022-09-15T16:27:12.000Z,288.34
2022-09-15T16:29:18.000Z,288.34
2022-09-15T16:30:45.000Z,288.27
2022-09-15T16:32:51.000Z,288.34
2022-09-15T16:34:17.000Z,288.34
2022-09-15T16:36:23.000Z,288.34
2022-09-15T16:39:15.000Z,288.27
2022-09-15T16:40:41.000Z,288.27
2022-09-15T16:42:47.000Z,288.27
2022-09-15T16:44:14.000Z,288.27
2022-09-15T16:46:20.000Z,288.21
2022-09-15T16:47:46.000Z,288.21
2022-09-15T16:49:52.000Z,288.21
2022-09-15T16:51:19.000Z,288.21
2022-09-15T16:53:35.000Z,288.15
2022-09-15T16:55:01.000Z,288.15
2022-09-15T16:57:08.000Z,288.15
2022-09-15T16:58:34.000Z,288.15
2022-09-15T17:00:40.000Z,288.09
2022-09-15T17:02:07.000Z,288.09
2022-09-15T17:04:13.000Z,288.09
2022-09-15T17:05:40.000Z,288.09
2022-09-15T17:07:51.000Z,288.02
2022-09-15T17:09:18.000Z,288.09
2022-09-15T17:11:24.000Z,288.02
2022-09-15T17:12:50.000Z,288.02
2022-09-15T17:14:57.000Z,287.9
2022-09-15T17:17:48.000Z,287.77
2022-09-15T17:19:14.000Z,287.77
2022-09-15T17:21:21.000Z,287.77
2022-09-15T17:22:47.000Z,287.71
2022-09-15T17:24:53.000Z,287.77
2022-09-15T17:26:20.000Z,287.77
2022-09-15T17:28:26.000Z,287.71
2022-09-15T17:29:53.000Z,287.71
2022-09-15T17:31:59.000Z,287.71
2022-09-15T17:33:25.000Z,287.71
2022-09-15T17:35:31.000Z,287.71
2022-09-15T17:36:58.000Z,287.65
2022-09-15T17:39:04.000Z,287.59
2022-09-15T17:40:30.000Z,287.59
2022-09-15T17:42:37.000Z,287.52
2022-09-15T17:44:03.000Z,287.46
2022-09-15T17:46:09.000Z,287.46
2022-09-15T17:47:36.000Z,287.46
2022-09-15T17:49:42.000Z,287.4
2022-09-15T17:51:09.000Z,287.4
2022-09-15T17:53:15.000Z,287.4
2022-09-15T17:56:06.000Z,287.4
2022-09-15T17:57:32.000Z,287.34
2022-09-15T17:59:39.000Z,287.27
2022-09-15T18:01:05.000Z,287.27
2022-09-15T18:03:11.000Z,287.27
2022-09-15T18:04:38.000Z,287.21
2022-09-15T18:06:44.000Z,287.27
2022-09-15T18:08:10.000Z,287.27
2022-09-15T18:10:16.000Z,287.27
2022-09-15T18:11:43.000Z,287.27
2022-09-15T18:13:49.000Z,287.27
2022-09-15T18:15:15.000Z,287.21
2022-09-15T18:17:22.000Z,287.21
2022-09-15T18:18:48.000Z,287.27
2022-09-15T18:20:54.000Z,287.27
2022-09-15T18:22:21.000Z,287.21
2022-09-15T18:24:27.000Z,287.15
2022-09-15T18:25:53.000Z,287.15
2022-09-15T18:27:59.000Z,287.15
2022-09-15T18:29:26.000Z,287.15
2022-09-15T18:31:32.000Z,287.15
2022-09-15T18:34:23.000Z,287.15
2022-09-15T18:35:50.000Z,287.15
2022-09-15T18:37:56.000Z,287.15
2022-09-15T18:39:23.000Z,287.15
2022-09-15T18:41:29.000Z,287.15
2022-09-15T18:42:55.000Z,287.15
2022-09-15T18:45:01.000Z,287.21
2022-09-15T18:46:28.000Z,287.15
2022-09-15T18:48:34.000Z,287.15
2022-09-15T18:50:01.000Z,287.15
2022-09-15T18:52:07.000Z,287.21
2022-09-15T18:53:33.000Z,287.15
2022-09-15T18:55:39.000Z,287.15
2022-09-15T18:57:06.000Z,287.15
2022-09-15T18:59:12.000Z,287.15
2022-09-15T19:00:42.000Z,287.15
2022-09-15T19:02:48.000Z,287.21
2022-09-15T19:04:14.000Z,287.21
2022-09-15T19:06:20.000Z,287.21
2022-09-15T19:07:47.000Z,287.21
2022-09-15T19:09:53.000Z,287.21
2022-09-15T19:12:46.000Z,287.15
2022-09-15T19:14:12.000Z,287.15
2022-09-15T19:16:18.000Z,287.15
2022-09-15T19:17:50.000Z,287.15
2022-09-15T19:19:56.000Z,287.09
2022-09-15T19:21:23.000Z,287.15
2022-09-15T19:23:31.000Z,287.09
2022-09-15T19:24:58.000Z,287.09
2022-09-15T19:27:04.000Z,287.09
2022-09-15T19:28:30.000Z,287.02
2022-09-15T19:30:36.000Z,287.02
2022-09-15T19:32:03.000Z,287.02
2022-09-15T19:34:09.000Z,286.96
2022-09-15T19:35:35.000Z,286.96
2022-09-15T19:37:41.000Z,286.96
2022-09-15T19:39:08.000Z,286.96
2022-09-15T19:41:14.000Z,286.9
2022-09-15T19:42:41.000Z,286.9
2022-09-15T19:44:47.000Z,286.9
2022-09-15T19:46:13.000Z,286.9
2022-09-15T19:48:19.000Z,286.9
2022-09-15T19:51:11.000Z,286.84
2022-09-15T19:52:37.000Z,286.77
2022-09-15T19:54:43.000Z,286.77
2022-09-15T19:56:10.000Z,286.84
2022-09-15T19:58:16.000Z,286.71
2022-09-15T19:59:43.000Z,286.71
2022-09-15T20:01:49.000Z,286.71
2022-09-15T20:03:15.000Z,286.77
2022-09-15T20:05:21.000Z,286.71
2022-09-15T20:06:48.000Z,286.65
2022-09-15T20:08:54.000Z,286.59
2022-09-15T20:10:21.000Z,286.65
2022-09-15T20:12:27.000Z,286.65
2022-09-15T20:13:53.000Z,286.59
2022-09-15T20:16:00.000Z,286.52
2022-09-15T20:17:26.000Z,286.46
2022-09-15T20:19:32.000Z,286.46
2022-09-15T20:20:59.000Z,286.46
2022-09-15T20:23:05.000Z,286.4
2022-09-15T20:24:31.000Z,286.4
2022-09-15T20:26:37.000Z,286.34
2022-09-15T20:29:28.000Z,286.34
2022-09-15T20:30:55.000Z,286.27
2022-09-15T20:33:01.000Z,286.27
2022-09-15T20:34:28.000Z,286.21
2022-09-15T20:36:34.000Z,286.21
2022-09-15T20:38:00.000Z,286.15
2022-09-15T20:40:06.000Z,286.21
2022-09-15T20:41:33.000Z,286.21
2022-09-15T20:43:39.000Z,286.21
2022-09-15T20:45:06.000Z,286.21
2022-09-15T20:47:12.000Z,286.21
2022-09-15T20:48:38.000Z,286.21
2022-09-15T20:50:44.000Z,286.15
2022-09-15T20:52:11.000Z,286.21
2022-09-15T20:54:17.000Z,286.21
2022-09-15T20:55:43.000Z,286.21
2022-09-15T20:57:50.000Z,286.21
2022-09-15T20:59:16.000Z,286.21
2022-09-15T21:01:22.000Z,286.21
2022-09-15T21:02:49.000Z,286.15
2022-09-15T21:04:55.000Z,286.15
2022-09-15T21:07:46.000Z,286.15
2022-09-15T21:09:13.000Z,286.09
2022-09-15T21:11:19.000Z,286.09
2022-09-15T21:12:45.000Z,286.09
2022-09-15T21:14:52.000Z,286.02
2022-09-15T21:16:18.000Z,286.02
2022-09-15T21:18:25.000Z,285.96
2022-09-15T21:19:51.000Z,286.02
2022-09-15T21:21:57.000Z,285.96
2022-09-15T21:23:24.000Z,285.96
2022-09-15T21:25:30.000Z,285.9
2022-09-15T21:26:56.000Z,285.84
2022-09-15T21:29:02.000Z,285.9
2022-09-15T21:30:29.000Z,285.9
2022-09-15T21:32:35.000Z,285.84
2022-09-15T21:34:01.000Z,285.77
2022-09-15T21:36:07.000Z,285.84
2022-09-15T21:37:34.000Z,285.84
2022-09-15T21:39:40.000Z,285.84
2022-09-15T21:41:07.000Z,285.84
2022-09-15T21:43:13.000Z,285.84
2022-09-15T21:46:04.000Z,285.84
2022-09-15T21:47:30.000Z,285.84
2022-09-15T21:49:37.000Z,285.77
2022-09-15T21:51:03.000Z,285.77
2022-09-15T21:53:09.000Z,285.84
2022-09-15T21:54:36.000Z,285.84
2022-09-15T21:56:42.000Z,285.77
2022-09-15T21:58:08.000Z,285.77
2022-09-15T22:00:14.000Z,285.77
2022-09-15T22:01:41.000Z,285.77
2022-09-15T22:03:47.000Z,285.77
2022-09-15T22:05:14.000Z,285.84
2022-09-15T22:07:20.000Z,285.84
2022-09-15T22:08:46.000Z,285.84
2022-09-15T22:10:52.000Z,285.84
2022-09-15T22:12:19.000Z,285.84
2022-09-15T22:14:25.000Z,285.84
2022-09-15T22:15:51.000Z,285.84
2022-09-15T22:17:58.000Z,285.77
2022-09-15T22:19:24.000Z,285.77
2022-09-15T22:21:30.000Z,285.71
2022-09-15T22:24:21.000Z,285.71
2022-09-15T22:25:48.000Z,285.65
2022-09-15T22:27:54.000Z,285.59
2022-09-15T22:29:20.000Z,285.59
2022-09-15T22:31:27.000Z,285.52
2022-09-15T22:32:53.000Z,285.46
2022-09-15T22:34:59.000Z,285.46
2022-09-15T22:36:26.000Z,285.52
2022-09-15T22:38:34.000Z,285.46
2022-09-15T22:40:01.000Z,285.52
2022-09-15T22:42:07.000Z,285.4
2022-09-15T22:43:33.000Z,285.4
2022-09-15T22:45:39.000Z,285.34
2022-09-15T22:47:06.000Z,285.34
2022-09-15T22:49:12.000Z,285.34
2022-09-15T22:50:39.000Z,285.27
2022-09-15T22:52:45.000Z,285.21
2022-09-15T22:54:11.000Z,285.27
2022-09-15T22:56:17.000Z,285.27
2022-09-15T22:57:44.000Z,285.27